sensor_id;sensor_type;location;lat;lon;timestamp;P1;durP1;ratioP1;P2;durP2;ratioP2
24567;SDS011;12731;52.182;8.716;2024-02-26T00:00:47;8.23;;;4.70;;
24567;SDS011;12731;52.182;8.716;2024-02-26T00:03:13;6.70;;;4.32;;
24567;SDS011;12731;52.182;8.716;2024-02-26T00:05:40;6.80;;;4.88;;
24567;SDS011;12731;52.182;8.716;2024-02-26T00:08:06;8.20;;;4.93;;
24567;SDS011;12731;52.182;8.716;2024-02-26T00:10:34;7.55;;;4.80;;
24567;SDS011;12731;52.182;8.716;2024-02-26T00:13:00;5.18;;;3.75;;
24567;SDS011;12731;52.182;8.716;2024-02-26T00:15:27;5.43;;;4.00;;
24567;SDS011;12731;52.182;8.716;2024-02-26T00:17:54;3.65;;;2.97;;
24567;SDS011;12731;52.182;8.716;2024-02-26T00:20:21;4.40;;;2.50;;
24567;SDS011;12731;52.182;8.716;2024-02-26T00:22:47;2.55;;;1.90;;
24567;SDS011;12731;52.182;8.716;2024-02-26T00:25:13;3.85;;;2.00;;
24567;SDS011;12731;52.182;8.716;2024-02-26T00:27:40;2.72;;;1.85;;
24567;SDS011;12731;52.182;8.716;2024-02-26T00:30:08;2.38;;;1.60;;
24567;SDS011;12731;52.182;8.716;2024-02-26T00:32:34;2.30;;;1.58;;
24567;SDS011;12731;52.182;8.716;2024-02-26T00:35:01;2.08;;;1.60;;
24567;SDS011;12731;52.182;8.716;2024-02-26T00:37:27;2.80;;;1.70;;
24567;SDS011;12731;52.182;8.716;2024-02-26T00:39:54;1.58;;;1.40;;
24567;SDS011;12731;52.182;8.716;2024-02-26T00:42:20;2.53;;;1.55;;
24567;SDS011;12731;52.182;8.716;2024-02-26T00:44:47;3.70;;;2.00;;
24567;SDS011;12731;52.182;8.716;2024-02-26T00:47:13;3.67;;;1.85;;
24567;SDS011;12731;52.182;8.716;2024-02-26T00:49:40;2.42;;;2.05;;
24567;SDS011;12731;52.182;8.716;2024-02-26T00:52:06;2.90;;;2.20;;
24567;SDS011;12731;52.182;8.716;2024-02-26T00:54:33;4.10;;;2.33;;
24567;SDS011;12731;52.182;8.716;2024-02-26T00:56:59;3.42;;;2.30;;
24567;SDS011;12731;52.182;8.716;2024-02-26T00:59:25;4.93;;;2.50;;
24567;SDS011;12731;52.182;8.716;2024-02-26T01:01:52;2.72;;;2.00;;
24567;SDS011;12731;52.182;8.716;2024-02-26T01:04:18;2.13;;;1.90;;
24567;SDS011;12731;52.182;8.716;2024-02-26T01:06:45;3.65;;;2.22;;
24567;SDS011;12731;52.182;8.716;2024-02-26T01:09:12;3.05;;;2.10;;
24567;SDS011;12731;52.182;8.716;2024-02-26T01:11:38;3.20;;;2.30;;
24567;SDS011;12731;52.182;8.716;2024-02-26T01:14:05;4.43;;;2.50;;
24567;SDS011;12731;52.182;8.716;2024-02-26T01:16:32;3.13;;;2.22;;
24567;SDS011;12731;52.182;8.716;2024-02-26T01:18:58;2.92;;;2.53;;
24567;SDS011;12731;52.182;8.716;2024-02-26T01:21:25;3.45;;;2.65;;
24567;SDS011;12731;52.182;8.716;2024-02-26T01:23:55;3.72;;;3.00;;
24567;SDS011;12731;52.182;8.716;2024-02-26T01:26:21;4.50;;;3.05;;
24567;SDS011;12731;52.182;8.716;2024-02-26T01:28:48;4.38;;;3.22;;
24567;SDS011;12731;52.182;8.716;2024-02-26T01:31:14;3.67;;;3.28;;
24567;SDS011;12731;52.182;8.716;2024-02-26T01:33:41;4.68;;;3.63;;
24567;SDS011;12731;52.182;8.716;2024-02-26T01:36:07;4.90;;;3.85;;
24567;SDS011;12731;52.182;8.716;2024-02-26T01:38:34;4.45;;;3.80;;
24567;SDS011;12731;52.182;8.716;2024-02-26T01:41:00;4.13;;;3.45;;
24567;SDS011;12731;52.182;8.716;2024-02-26T01:43:27;5.45;;;3.60;;
24567;SDS011;12731;52.182;8.716;2024-02-26T01:45:54;5.55;;;3.30;;
24567;SDS011;12731;52.182;8.716;2024-02-26T01:48:21;4.95;;;3.67;;
24567;SDS011;12731;52.182;8.716;2024-02-26T01:50:47;4.55;;;3.72;;
24567;SDS011;12731;52.182;8.716;2024-02-26T01:53:14;3.78;;;3.17;;
24567;SDS011;12731;52.182;8.716;2024-02-26T01:55:41;4.97;;;3.50;;
24567;SDS011;12731;52.182;8.716;2024-02-26T01:58:08;4.05;;;3.45;;
24567;SDS011;12731;52.182;8.716;2024-02-26T02:00:34;6.22;;;3.80;;
24567;SDS011;12731;52.182;8.716;2024-02-26T02:03:01;4.18;;;3.20;;
24567;SDS011;12731;52.182;8.716;2024-02-26T02:05:29;5.13;;;3.00;;
24567;SDS011;12731;52.182;8.716;2024-02-26T02:07:55;4.10;;;3.20;;
24567;SDS011;12731;52.182;8.716;2024-02-26T02:10:22;5.63;;;3.33;;
24567;SDS011;12731;52.182;8.716;2024-02-26T02:12:51;4.15;;;3.00;;
24567;SDS011;12731;52.182;8.716;2024-02-26T02:15:18;4.28;;;3.08;;
24567;SDS011;12731;52.182;8.716;2024-02-26T02:17:44;3.47;;;2.95;;
24567;SDS011;12731;52.182;8.716;2024-02-26T02:20:17;3.53;;;3.00;;
24567;SDS011;12731;52.182;8.716;2024-02-26T02:22:45;5.28;;;3.55;;
24567;SDS011;12731;52.182;8.716;2024-02-26T02:25:12;3.70;;;3.35;;
24567;SDS011;12731;52.182;8.716;2024-02-26T02:27:39;5.18;;;3.45;;
24567;SDS011;12731;52.182;8.716;2024-02-26T02:30:06;7.35;;;3.47;;
24567;SDS011;12731;52.182;8.716;2024-02-26T02:32:33;4.65;;;3.50;;
24567;SDS011;12731;52.182;8.716;2024-02-26T02:34:59;3.70;;;3.40;;
24567;SDS011;12731;52.182;8.716;2024-02-26T02:37:26;4.28;;;3.00;;
24567;SDS011;12731;52.182;8.716;2024-02-26T02:39:52;3.97;;;3.22;;
24567;SDS011;12731;52.182;8.716;2024-02-26T02:42:21;3.88;;;3.30;;
24567;SDS011;12731;52.182;8.716;2024-02-26T02:44:47;3.40;;;2.95;;
24567;SDS011;12731;52.182;8.716;2024-02-26T02:47:13;4.47;;;2.90;;
24567;SDS011;12731;52.182;8.716;2024-02-26T02:49:40;3.13;;;2.55;;
24567;SDS011;12731;52.182;8.716;2024-02-26T02:52:06;4.20;;;2.60;;
24567;SDS011;12731;52.182;8.716;2024-02-26T02:54:33;2.83;;;2.40;;
24567;SDS011;12731;52.182;8.716;2024-02-26T02:56:59;2.50;;;2.25;;
24567;SDS011;12731;52.182;8.716;2024-02-26T02:59:26;3.22;;;2.45;;
24567;SDS011;12731;52.182;8.716;2024-02-26T03:01:53;2.78;;;2.17;;
24567;SDS011;12731;52.182;8.716;2024-02-26T03:04:19;3.47;;;2.58;;
24567;SDS011;12731;52.182;8.716;2024-02-26T03:06:46;3.17;;;2.35;;
24567;SDS011;12731;52.182;8.716;2024-02-26T03:09:12;3.63;;;2.70;;
24567;SDS011;12731;52.182;8.716;2024-02-26T03:11:39;4.25;;;2.65;;
24567;SDS011;12731;52.182;8.716;2024-02-26T03:14:06;3.90;;;2.92;;
24567;SDS011;12731;52.182;8.716;2024-02-26T03:16:32;5.50;;;3.08;;
24567;SDS011;12731;52.182;8.716;2024-02-26T03:18:59;5.40;;;3.25;;
24567;SDS011;12731;52.182;8.716;2024-02-26T03:21:26;5.60;;;3.42;;
24567;SDS011;12731;52.182;8.716;2024-02-26T03:23:53;3.85;;;3.45;;
24567;SDS011;12731;52.182;8.716;2024-02-26T03:26:19;4.13;;;3.25;;
24567;SDS011;12731;52.182;8.716;2024-02-26T03:28:46;3.88;;;3.03;;
24567;SDS011;12731;52.182;8.716;2024-02-26T03:31:12;5.13;;;3.10;;
24567;SDS011;12731;52.182;8.716;2024-02-26T03:33:39;3.80;;;3.17;;
24567;SDS011;12731;52.182;8.716;2024-02-26T03:36:05;3.90;;;3.50;;
24567;SDS011;12731;52.182;8.716;2024-02-26T03:38:33;3.97;;;3.28;;
24567;SDS011;12731;52.182;8.716;2024-02-26T03:41:00;4.85;;;3.35;;
24567;SDS011;12731;52.182;8.716;2024-02-26T03:43:26;5.13;;;2.95;;
24567;SDS011;12731;52.182;8.716;2024-02-26T03:45:53;4.82;;;3.28;;
24567;SDS011;12731;52.182;8.716;2024-02-26T03:48:19;4.90;;;3.20;;
24567;SDS011;12731;52.182;8.716;2024-02-26T03:50:46;4.18;;;3.15;;
24567;SDS011;12731;52.182;8.716;2024-02-26T03:53:12;4.72;;;2.78;;
24567;SDS011;12731;52.182;8.716;2024-02-26T03:55:40;3.83;;;2.83;;
24567;SDS011;12731;52.182;8.716;2024-02-26T03:58:08;3.58;;;2.78;;
24567;SDS011;12731;52.182;8.716;2024-02-26T04:00:35;5.13;;;2.88;;
24567;SDS011;12731;52.182;8.716;2024-02-26T04:03:01;2.95;;;2.65;;
24567;SDS011;12731;52.182;8.716;2024-02-26T04:05:28;3.45;;;2.83;;
24567;SDS011;12731;52.182;8.716;2024-02-26T04:07:54;5.00;;;3.22;;
24567;SDS011;12731;52.182;8.716;2024-02-26T04:10:21;5.15;;;3.10;;
24567;SDS011;12731;52.182;8.716;2024-02-26T04:12:48;3.95;;;3.17;;
24567;SDS011;12731;52.182;8.716;2024-02-26T04:15:14;4.68;;;2.97;;
24567;SDS011;12731;52.182;8.716;2024-02-26T04:17:41;4.85;;;3.03;;
24567;SDS011;12731;52.182;8.716;2024-02-26T04:20:07;3.22;;;2.88;;
24567;SDS011;12731;52.182;8.716;2024-02-26T04:22:38;6.10;;;2.88;;
24567;SDS011;12731;52.182;8.716;2024-02-26T04:25:05;4.25;;;3.08;;
24567;SDS011;12731;52.182;8.716;2024-02-26T04:27:31;3.53;;;2.85;;
24567;SDS011;12731;52.182;8.716;2024-02-26T04:29:58;4.78;;;3.15;;
24567;SDS011;12731;52.182;8.716;2024-02-26T04:32:24;4.25;;;3.13;;
24567;SDS011;12731;52.182;8.716;2024-02-26T04:34:51;2.83;;;2.60;;
24567;SDS011;12731;52.182;8.716;2024-02-26T04:37:17;3.60;;;2.90;;
24567;SDS011;12731;52.182;8.716;2024-02-26T04:39:44;4.38;;;3.20;;
24567;SDS011;12731;52.182;8.716;2024-02-26T04:42:13;4.15;;;3.20;;
24567;SDS011;12731;52.182;8.716;2024-02-26T04:44:40;3.58;;;3.17;;
24567;SDS011;12731;52.182;8.716;2024-02-26T04:47:06;5.00;;;3.70;;
24567;SDS011;12731;52.182;8.716;2024-02-26T04:49:33;4.10;;;3.30;;
24567;SDS011;12731;52.182;8.716;2024-02-26T04:52:00;4.07;;;3.42;;
24567;SDS011;12731;52.182;8.716;2024-02-26T04:54:26;4.50;;;2.90;;
24567;SDS011;12731;52.182;8.716;2024-02-26T04:56:53;6.45;;;3.70;;
24567;SDS011;12731;52.182;8.716;2024-02-26T04:59:19;5.10;;;3.83;;
24567;SDS011;12731;52.182;8.716;2024-02-26T05:01:46;4.47;;;3.70;;
24567;SDS011;12731;52.182;8.716;2024-02-26T05:04:12;4.53;;;3.55;;
24567;SDS011;12731;52.182;8.716;2024-02-26T05:06:39;5.20;;;4.10;;
24567;SDS011;12731;52.182;8.716;2024-02-26T05:09:06;6.82;;;3.92;;
24567;SDS011;12731;52.182;8.716;2024-02-26T05:11:33;4.93;;;3.90;;
24567;SDS011;12731;52.182;8.716;2024-02-26T05:13:59;4.57;;;4.10;;
24567;SDS011;12731;52.182;8.716;2024-02-26T05:16:26;7.60;;;5.47;;
24567;SDS011;12731;52.182;8.716;2024-02-26T05:18:53;7.07;;;5.57;;
24567;SDS011;12731;52.182;8.716;2024-02-26T05:21:20;8.45;;;5.43;;
24567;SDS011;12731;52.182;8.716;2024-02-26T05:23:46;5.00;;;4.38;;
24567;SDS011;12731;52.182;8.716;2024-02-26T05:26:19;6.13;;;4.45;;
24567;SDS011;12731;52.182;8.716;2024-02-26T05:28:46;5.00;;;4.10;;
24567;SDS011;12731;52.182;8.716;2024-02-26T05:31:13;4.22;;;3.83;;
24567;SDS011;12731;52.182;8.716;2024-02-26T05:33:40;4.70;;;4.00;;
24567;SDS011;12731;52.182;8.716;2024-02-26T05:36:06;4.82;;;4.10;;
24567;SDS011;12731;52.182;8.716;2024-02-26T05:38:33;5.75;;;3.97;;
24567;SDS011;12731;52.182;8.716;2024-02-26T05:40:59;6.47;;;4.25;;
24567;SDS011;12731;52.182;8.716;2024-02-26T05:43:26;4.80;;;3.97;;
24567;SDS011;12731;52.182;8.716;2024-02-26T05:45:53;6.07;;;4.13;;
24567;SDS011;12731;52.182;8.716;2024-02-26T05:48:19;6.03;;;4.15;;
24567;SDS011;12731;52.182;8.716;2024-02-26T05:50:46;4.30;;;3.85;;
24567;SDS011;12731;52.182;8.716;2024-02-26T05:53:12;5.18;;;4.13;;
24567;SDS011;12731;52.182;8.716;2024-02-26T05:55:39;6.40;;;4.72;;
24567;SDS011;12731;52.182;8.716;2024-02-26T05:58:05;8.05;;;4.95;;
24567;SDS011;12731;52.182;8.716;2024-02-26T06:00:32;5.90;;;4.35;;
24567;SDS011;12731;52.182;8.716;2024-02-26T06:02:58;7.25;;;5.18;;
24567;SDS011;12731;52.182;8.716;2024-02-26T06:05:25;6.95;;;4.43;;
24567;SDS011;12731;52.182;8.716;2024-02-26T06:07:52;7.32;;;4.35;;
24567;SDS011;12731;52.182;8.716;2024-02-26T06:10:19;6.65;;;4.53;;
24567;SDS011;12731;52.182;8.716;2024-02-26T06:12:47;6.80;;;4.93;;
24567;SDS011;12731;52.182;8.716;2024-02-26T06:15:14;6.00;;;4.90;;
24567;SDS011;12731;52.182;8.716;2024-02-26T06:17:40;5.80;;;4.90;;
24567;SDS011;12731;52.182;8.716;2024-02-26T06:20:07;7.95;;;5.35;;
24567;SDS011;12731;52.182;8.716;2024-02-26T06:22:39;8.00;;;5.30;;
24567;SDS011;12731;52.182;8.716;2024-02-26T06:25:07;7.05;;;5.40;;
24567;SDS011;12731;52.182;8.716;2024-02-26T06:27:34;10.13;;;6.18;;
24567;SDS011;12731;52.182;8.716;2024-02-26T06:30:01;8.02;;;5.80;;
24567;SDS011;12731;52.182;8.716;2024-02-26T06:32:27;8.75;;;6.60;;
24567;SDS011;12731;52.182;8.716;2024-02-26T06:34:55;9.70;;;6.88;;
24567;SDS011;12731;52.182;8.716;2024-02-26T06:37:22;10.88;;;7.28;;
24567;SDS011;12731;52.182;8.716;2024-02-26T06:39:48;11.75;;;7.00;;
24567;SDS011;12731;52.182;8.716;2024-02-26T06:42:15;9.02;;;7.10;;
24567;SDS011;12731;52.182;8.716;2024-02-26T06:44:41;10.10;;;7.20;;
24567;SDS011;12731;52.182;8.716;2024-02-26T06:47:08;9.95;;;7.75;;
24567;SDS011;12731;52.182;8.716;2024-02-26T06:49:34;11.57;;;7.75;;
24567;SDS011;12731;52.182;8.716;2024-02-26T06:52:01;11.50;;;7.75;;
24567;SDS011;12731;52.182;8.716;2024-02-26T06:54:27;10.40;;;7.35;;
24567;SDS011;12731;52.182;8.716;2024-02-26T06:56:54;8.82;;;6.72;;
24567;SDS011;12731;52.182;8.716;2024-02-26T06:59:21;11.70;;;7.15;;
24567;SDS011;12731;52.182;8.716;2024-02-26T07:01:48;10.68;;;7.68;;
24567;SDS011;12731;52.182;8.716;2024-02-26T07:04:14;10.90;;;7.72;;
24567;SDS011;12731;52.182;8.716;2024-02-26T07:06:41;10.73;;;7.10;;
24567;SDS011;12731;52.182;8.716;2024-02-26T07:09:09;12.65;;;7.63;;
24567;SDS011;12731;52.182;8.716;2024-02-26T07:11:38;10.73;;;7.47;;
24567;SDS011;12731;52.182;8.716;2024-02-26T07:14:11;10.43;;;7.68;;
24567;SDS011;12731;52.182;8.716;2024-02-26T07:16:38;12.15;;;7.78;;
24567;SDS011;12731;52.182;8.716;2024-02-26T07:19:04;9.73;;;7.00;;
24567;SDS011;12731;52.182;8.716;2024-02-26T07:21:31;10.80;;;7.65;;
24567;SDS011;12731;52.182;8.716;2024-02-26T07:23:57;9.60;;;7.65;;
24567;SDS011;12731;52.182;8.716;2024-02-26T07:26:24;11.27;;;7.47;;
24567;SDS011;12731;52.182;8.716;2024-02-26T07:28:52;10.52;;;6.95;;
24567;SDS011;12731;52.182;8.716;2024-02-26T07:31:18;10.23;;;6.82;;
24567;SDS011;12731;52.182;8.716;2024-02-26T07:33:45;11.32;;;7.40;;
24567;SDS011;12731;52.182;8.716;2024-02-26T07:36:11;10.02;;;7.10;;
24567;SDS011;12731;52.182;8.716;2024-02-26T07:38:38;13.93;;;8.10;;
24567;SDS011;12731;52.182;8.716;2024-02-26T07:41:09;12.93;;;7.68;;
24567;SDS011;12731;52.182;8.716;2024-02-26T07:43:35;12.77;;;8.30;;
24567;SDS011;12731;52.182;8.716;2024-02-26T07:46:02;12.18;;;7.80;;
24567;SDS011;12731;52.182;8.716;2024-02-26T07:48:28;9.52;;;7.72;;
24567;SDS011;12731;52.182;8.716;2024-02-26T07:50:55;10.38;;;7.53;;
24567;SDS011;12731;52.182;8.716;2024-02-26T07:53:22;12.98;;;7.65;;
24567;SDS011;12731;52.182;8.716;2024-02-26T07:55:48;10.85;;;8.07;;
24567;SDS011;12731;52.182;8.716;2024-02-26T07:58:15;10.02;;;7.40;;
24567;SDS011;12731;52.182;8.716;2024-02-26T08:00:41;12.18;;;7.07;;
24567;SDS011;12731;52.182;8.716;2024-02-26T08:03:08;12.93;;;7.22;;
24567;SDS011;12731;52.182;8.716;2024-02-26T08:05:34;11.57;;;6.88;;
24567;SDS011;12731;52.182;8.716;2024-02-26T08:08:01;11.95;;;7.25;;
24567;SDS011;12731;52.182;8.716;2024-02-26T08:10:27;10.63;;;7.63;;
24567;SDS011;12731;52.182;8.716;2024-02-26T08:12:58;11.32;;;7.88;;
24567;SDS011;12731;52.182;8.716;2024-02-26T08:15:31;12.45;;;7.95;;
24567;SDS011;12731;52.182;8.716;2024-02-26T08:18:00;9.82;;;7.00;;
24567;SDS011;12731;52.182;8.716;2024-02-26T08:20:29;13.18;;;7.55;;
24567;SDS011;12731;52.182;8.716;2024-02-26T08:22:56;10.13;;;7.13;;
24567;SDS011;12731;52.182;8.716;2024-02-26T08:25:23;11.43;;;6.90;;
24567;SDS011;12731;52.182;8.716;2024-02-26T08:27:50;10.43;;;6.57;;
24567;SDS011;12731;52.182;8.716;2024-02-26T08:30:16;9.65;;;6.80;;
24567;SDS011;12731;52.182;8.716;2024-02-26T08:32:44;9.52;;;7.03;;
24567;SDS011;12731;52.182;8.716;2024-02-26T08:35:17;7.70;;;6.20;;
24567;SDS011;12731;52.182;8.716;2024-02-26T08:37:44;7.95;;;6.00;;
24567;SDS011;12731;52.182;8.716;2024-02-26T08:40:12;8.52;;;5.97;;
24567;SDS011;12731;52.182;8.716;2024-02-26T08:42:38;9.13;;;6.03;;
24567;SDS011;12731;52.182;8.716;2024-02-26T08:45:05;8.77;;;5.93;;
24567;SDS011;12731;52.182;8.716;2024-02-26T08:47:33;7.68;;;5.45;;
24567;SDS011;12731;52.182;8.716;2024-02-26T08:49:59;8.40;;;5.47;;
24567;SDS011;12731;52.182;8.716;2024-02-26T08:52:25;7.57;;;5.05;;
24567;SDS011;12731;52.182;8.716;2024-02-26T08:54:52;8.45;;;5.22;;
24567;SDS011;12731;52.182;8.716;2024-02-26T08:57:19;6.60;;;4.72;;
24567;SDS011;12731;52.182;8.716;2024-02-26T08:59:45;5.82;;;4.80;;
24567;SDS011;12731;52.182;8.716;2024-02-26T09:02:12;6.50;;;4.70;;
24567;SDS011;12731;52.182;8.716;2024-02-26T09:04:38;6.55;;;5.28;;
24567;SDS011;12731;52.182;8.716;2024-02-26T09:07:05;6.95;;;5.15;;
24567;SDS011;12731;52.182;8.716;2024-02-26T09:09:32;8.70;;;4.93;;
24567;SDS011;12731;52.182;8.716;2024-02-26T09:11:59;7.50;;;4.85;;
24567;SDS011;12731;52.182;8.716;2024-02-26T09:14:25;7.05;;;4.68;;
24567;SDS011;12731;52.182;8.716;2024-02-26T09:16:53;6.07;;;4.90;;
24567;SDS011;12731;52.182;8.716;2024-02-26T09:19:20;7.55;;;4.72;;
24567;SDS011;12731;52.182;8.716;2024-02-26T09:21:46;7.50;;;4.32;;
24567;SDS011;12731;52.182;8.716;2024-02-26T09:24:13;6.50;;;4.88;;
24567;SDS011;12731;52.182;8.716;2024-02-26T09:26:40;5.55;;;4.70;;
24567;SDS011;12731;52.182;8.716;2024-02-26T09:29:07;6.72;;;4.68;;
24567;SDS011;12731;52.182;8.716;2024-02-26T09:31:34;6.68;;;4.32;;
24567;SDS011;12731;52.182;8.716;2024-02-26T09:34:00;7.82;;;5.15;;
24567;SDS011;12731;52.182;8.716;2024-02-26T09:36:28;8.13;;;5.43;;
24567;SDS011;12731;52.182;8.716;2024-02-26T09:38:55;5.75;;;4.68;;
24567;SDS011;12731;52.182;8.716;2024-02-26T09:41:30;8.55;;;5.45;;
24567;SDS011;12731;52.182;8.716;2024-02-26T09:43:57;7.30;;;4.72;;
24567;SDS011;12731;52.182;8.716;2024-02-26T09:46:25;7.85;;;5.50;;
24567;SDS011;12731;52.182;8.716;2024-02-26T09:48:52;8.27;;;4.68;;
24567;SDS011;12731;52.182;8.716;2024-02-26T09:51:19;7.38;;;5.38;;
24567;SDS011;12731;52.182;8.716;2024-02-26T09:53:46;7.38;;;4.72;;
24567;SDS011;12731;52.182;8.716;2024-02-26T09:56:13;7.53;;;5.15;;
24567;SDS011;12731;52.182;8.716;2024-02-26T09:58:40;7.53;;;5.15;;
24567;SDS011;12731;52.182;8.716;2024-02-26T10:01:10;6.68;;;4.55;;
24567;SDS011;12731;52.182;8.716;2024-02-26T10:03:41;7.93;;;4.75;;
24567;SDS011;12731;52.182;8.716;2024-02-26T10:06:10;6.25;;;4.32;;
24567;SDS011;12731;52.182;8.716;2024-02-26T10:08:37;6.03;;;4.40;;
24567;SDS011;12731;52.182;8.716;2024-02-26T10:11:07;6.90;;;4.13;;
24567;SDS011;12731;52.182;8.716;2024-02-26T10:13:34;6.78;;;4.30;;
24567;SDS011;12731;52.182;8.716;2024-02-26T10:16:02;5.05;;;4.30;;
24567;SDS011;12731;52.182;8.716;2024-02-26T10:18:45;5.28;;;3.67;;
24567;SDS011;12731;52.182;8.716;2024-02-26T10:21:24;6.85;;;4.10;;
24567;SDS011;12731;52.182;8.716;2024-02-26T10:23:51;4.78;;;3.70;;
24567;SDS011;12731;52.182;8.716;2024-02-26T10:26:17;5.38;;;3.78;;
24567;SDS011;12731;52.182;8.716;2024-02-26T10:28:45;5.90;;;3.60;;
24567;SDS011;12731;52.182;8.716;2024-02-26T10:31:14;4.22;;;3.53;;
24567;SDS011;12731;52.182;8.716;2024-02-26T10:33:41;5.38;;;3.50;;
24567;SDS011;12731;52.182;8.716;2024-02-26T10:36:09;5.70;;;4.10;;
24567;SDS011;12731;52.182;8.716;2024-02-26T10:38:36;6.97;;;3.78;;
24567;SDS011;12731;52.182;8.716;2024-02-26T10:41:07;6.32;;;3.85;;
24567;SDS011;12731;52.182;8.716;2024-02-26T10:43:34;4.90;;;3.85;;
24567;SDS011;12731;52.182;8.716;2024-02-26T10:46:01;5.80;;;3.75;;
24567;SDS011;12731;52.182;8.716;2024-02-26T10:48:27;4.78;;;3.30;;
24567;SDS011;12731;52.182;8.716;2024-02-26T10:50:54;3.80;;;3.40;;
24567;SDS011;12731;52.182;8.716;2024-02-26T10:53:22;5.90;;;3.92;;
24567;SDS011;12731;52.182;8.716;2024-02-26T10:55:54;5.45;;;3.92;;
24567;SDS011;12731;52.182;8.716;2024-02-26T11:00:49;4.53;;;3.90;;
24567;SDS011;12731;52.182;8.716;2024-02-26T11:03:16;6.05;;;3.72;;
24567;SDS011;12731;52.182;8.716;2024-02-26T11:05:44;5.63;;;4.18;;
24567;SDS011;12731;52.182;8.716;2024-02-26T11:08:11;4.93;;;4.05;;
24567;SDS011;12731;52.182;8.716;2024-02-26T11:10:38;6.05;;;3.97;;
24567;SDS011;12731;52.182;8.716;2024-02-26T11:13:04;6.75;;;3.90;;
24567;SDS011;12731;52.182;8.716;2024-02-26T11:15:31;6.60;;;3.88;;
24567;SDS011;12731;52.182;8.716;2024-02-26T11:18:00;5.32;;;3.70;;
24567;SDS011;12731;52.182;8.716;2024-02-26T11:20:28;5.50;;;3.60;;
24567;SDS011;12731;52.182;8.716;2024-02-26T11:22:56;5.20;;;3.88;;
24567;SDS011;12731;52.182;8.716;2024-02-26T11:25:22;5.35;;;4.10;;
24567;SDS011;12731;52.182;8.716;2024-02-26T11:27:51;6.00;;;4.50;;
24567;SDS011;12731;52.182;8.716;2024-02-26T11:30:20;5.75;;;4.20;;
24567;SDS011;12731;52.182;8.716;2024-02-26T11:32:48;5.70;;;4.43;;
24567;SDS011;12731;52.182;8.716;2024-02-26T11:35:15;6.75;;;4.20;;
24567;SDS011;12731;52.182;8.716;2024-02-26T11:37:56;5.25;;;4.10;;
24567;SDS011;12731;52.182;8.716;2024-02-26T11:40:23;3.67;;;3.28;;
24567;SDS011;12731;52.182;8.716;2024-02-26T11:42:51;4.35;;;3.70;;
24567;SDS011;12731;52.182;8.716;2024-02-26T11:48:04;7.05;;;3.60;;
24567;SDS011;12731;52.182;8.716;2024-02-26T11:50:50;4.90;;;3.17;;
24567;SDS011;12731;52.182;8.716;2024-02-26T11:53:21;5.68;;;3.70;;
24567;SDS011;12731;52.182;8.716;2024-02-26T11:56:11;6.53;;;3.65;;
24567;SDS011;12731;52.182;8.716;2024-02-26T12:01:42;4.03;;;2.80;;
24567;SDS011;12731;52.182;8.716;2024-02-26T12:04:13;4.50;;;2.75;;
24567;SDS011;12731;52.182;8.716;2024-02-26T12:06:42;3.30;;;2.70;;
24567;SDS011;12731;52.182;8.716;2024-02-26T12:09:13;3.78;;;2.75;;
24567;SDS011;12731;52.182;8.716;2024-02-26T12:11:40;4.88;;;2.90;;
24567;SDS011;12731;52.182;8.716;2024-02-26T12:14:08;3.15;;;2.75;;
24567;SDS011;12731;52.182;8.716;2024-02-26T12:16:36;3.22;;;2.47;;
24567;SDS011;12731;52.182;8.716;2024-02-26T12:19:07;3.55;;;2.60;;
24567;SDS011;12731;52.182;8.716;2024-02-26T12:21:35;3.95;;;2.67;;
24567;SDS011;12731;52.182;8.716;2024-02-26T12:24:13;3.45;;;2.45;;
24567;SDS011;12731;52.182;8.716;2024-02-26T12:26:40;3.85;;;2.60;;
24567;SDS011;12731;52.182;8.716;2024-02-26T12:29:07;4.03;;;3.13;;
24567;SDS011;12731;52.182;8.716;2024-02-26T12:31:34;3.28;;;2.58;;
24567;SDS011;12731;52.182;8.716;2024-02-26T12:34:03;3.10;;;2.67;;
24567;SDS011;12731;52.182;8.716;2024-02-26T12:36:30;5.18;;;2.83;;
24567;SDS011;12731;52.182;8.716;2024-02-26T12:38:56;3.20;;;2.40;;
24567;SDS011;12731;52.182;8.716;2024-02-26T12:41:23;3.85;;;2.80;;
24567;SDS011;12731;52.182;8.716;2024-02-26T12:43:49;3.58;;;2.45;;
24567;SDS011;12731;52.182;8.716;2024-02-26T12:46:16;3.67;;;2.80;;
24567;SDS011;12731;52.182;8.716;2024-02-26T12:48:43;3.95;;;2.70;;
24567;SDS011;12731;52.182;8.716;2024-02-26T12:51:11;3.00;;;2.50;;
24567;SDS011;12731;52.182;8.716;2024-02-26T12:53:39;4.00;;;2.80;;
24567;SDS011;12731;52.182;8.716;2024-02-26T12:56:06;4.80;;;2.70;;
24567;SDS011;12731;52.182;8.716;2024-02-26T12:58:34;4.57;;;3.08;;
24567;SDS011;12731;52.182;8.716;2024-02-26T13:01:00;5.25;;;2.80;;
24567;SDS011;12731;52.182;8.716;2024-02-26T13:03:28;3.67;;;2.63;;
24567;SDS011;12731;52.182;8.716;2024-02-26T13:05:54;4.35;;;2.80;;
24567;SDS011;12731;52.182;8.716;2024-02-26T13:08:21;3.45;;;2.90;;
24567;SDS011;12731;52.182;8.716;2024-02-26T13:10:48;4.60;;;3.38;;
24567;SDS011;12731;52.182;8.716;2024-02-26T13:13:15;4.90;;;2.72;;
24567;SDS011;12731;52.182;8.716;2024-02-26T13:15:44;4.15;;;3.00;;
24567;SDS011;12731;52.182;8.716;2024-02-26T13:18:11;4.15;;;2.58;;
24567;SDS011;12731;52.182;8.716;2024-02-26T13:20:39;4.05;;;3.00;;
24567;SDS011;12731;52.182;8.716;2024-02-26T13:23:12;4.43;;;3.03;;
24567;SDS011;12731;52.182;8.716;2024-02-26T13:25:39;4.35;;;3.08;;
24567;SDS011;12731;52.182;8.716;2024-02-26T13:28:17;5.93;;;2.97;;
24567;SDS011;12731;52.182;8.716;2024-02-26T13:30:55;5.10;;;2.88;;
24567;SDS011;12731;52.182;8.716;2024-02-26T13:33:27;3.83;;;2.78;;
24567;SDS011;12731;52.182;8.716;2024-02-26T13:35:55;5.30;;;3.00;;
24567;SDS011;12731;52.182;8.716;2024-02-26T13:38:22;6.60;;;2.90;;
24567;SDS011;12731;52.182;8.716;2024-02-26T13:40:50;3.45;;;2.70;;
24567;SDS011;12731;52.182;8.716;2024-02-26T13:43:17;3.53;;;2.50;;
24567;SDS011;12731;52.182;8.716;2024-02-26T13:45:44;3.53;;;2.40;;
24567;SDS011;12731;52.182;8.716;2024-02-26T13:48:11;4.53;;;2.50;;
24567;SDS011;12731;52.182;8.716;2024-02-26T13:50:39;3.35;;;2.65;;
24567;SDS011;12731;52.182;8.716;2024-02-26T13:53:06;3.13;;;2.83;;
24567;SDS011;12731;52.182;8.716;2024-02-26T13:55:32;3.72;;;2.70;;
24567;SDS011;12731;52.182;8.716;2024-02-26T13:57:59;3.97;;;2.60;;
24567;SDS011;12731;52.182;8.716;2024-02-26T14:00:29;4.00;;;2.53;;
24567;SDS011;12731;52.182;8.716;2024-02-26T14:02:58;3.65;;;2.72;;
24567;SDS011;12731;52.182;8.716;2024-02-26T14:05:25;3.22;;;2.65;;
24567;SDS011;12731;52.182;8.716;2024-02-26T14:07:52;3.55;;;2.50;;
24567;SDS011;12731;52.182;8.716;2024-02-26T14:10:19;3.40;;;2.70;;
24567;SDS011;12731;52.182;8.716;2024-02-26T14:12:46;3.63;;;2.75;;
24567;SDS011;12731;52.182;8.716;2024-02-26T14:15:12;3.03;;;2.63;;
24567;SDS011;12731;52.182;8.716;2024-02-26T14:17:39;2.83;;;2.50;;
24567;SDS011;12731;52.182;8.716;2024-02-26T14:20:05;3.92;;;2.67;;
24567;SDS011;12731;52.182;8.716;2024-02-26T14:22:34;3.30;;;2.50;;
24567;SDS011;12731;52.182;8.716;2024-02-26T14:25:00;4.18;;;2.50;;
24567;SDS011;12731;52.182;8.716;2024-02-26T14:27:27;4.50;;;3.30;;
24567;SDS011;12731;52.182;8.716;2024-02-26T14:29:53;6.78;;;3.38;;
24567;SDS011;12731;52.182;8.716;2024-02-26T14:32:21;5.70;;;2.97;;
24567;SDS011;12731;52.182;8.716;2024-02-26T14:34:48;4.78;;;2.45;;
24567;SDS011;12731;52.182;8.716;2024-02-26T14:37:15;3.05;;;2.47;;
24567;SDS011;12731;52.182;8.716;2024-02-26T14:39:41;3.03;;;2.42;;
24567;SDS011;12731;52.182;8.716;2024-02-26T14:42:08;4.78;;;2.45;;
24567;SDS011;12731;52.182;8.716;2024-02-26T14:44:34;2.88;;;2.47;;
24567;SDS011;12731;52.182;8.716;2024-02-26T14:47:01;2.97;;;2.42;;
24567;SDS011;12731;52.182;8.716;2024-02-26T14:49:27;2.60;;;2.40;;
24567;SDS011;12731;52.182;8.716;2024-02-26T14:51:56;4.53;;;2.50;;
24567;SDS011;12731;52.182;8.716;2024-02-26T14:54:22;3.15;;;2.40;;